Horatio, South Carolina
Current Conditions -  °F | °C
As of 4:58 PM on Wednesday 22 Oct 2014 (Local Time) from KSSC Reporting Station
Clear Clear  
Wind Chill: 20°   Ceiling: Unl
Heat Index: 20°   Visibility: 10mi
Dew Point:   Wind: 12mph
Humidity: 42%   Direction: 340°NNW
Pressure: 30"   Gusts: NA
Location:  34.02°N, 80.57°W
Report Text: KSSC 222058Z AUTO 34010KT 10SM CLR 20/06 A3000 RMK AO2 SLP160 60000 T01960064 55006 $
Loading
Personal Weather Stations






























Interactive Weather Map
Tropical Storm Tracking
New forecast layout! Learn more

10-Day Weather Forecast

Advertisements
Track Severe Weather on mobile